sensor_id;sensor_type;location;lat;lon;timestamp;pressure;altitude;pressure_sealevel;temperature
15680;BMP180;15488;48.114;11.532;2023-05-10T00:01:25;94784.00;;;21.20
15680;BMP180;15488;48.114;11.532;2023-05-10T00:03:53;94780.00;;;21.10
15680;BMP180;15488;48.114;11.532;2023-05-10T00:06:21;94785.00;;;21.10
15680;BMP180;15488;48.114;11.532;2023-05-10T00:08:49;94785.00;;;21.00
15680;BMP180;15488;48.114;11.532;2023-05-10T00:11:16;94786.00;;;21.00
15680;BMP180;15488;48.114;11.532;2023-05-10T00:13:44;94784.00;;;21.00
15680;BMP180;15488;48.114;11.532;2023-05-10T00:16:11;94794.00;;;21.00
15680;BMP180;15488;48.114;11.532;2023-05-10T00:18:39;94777.00;;;21.00
15680;BMP180;15488;48.114;11.532;2023-05-10T00:21:07;94775.00;;;21.00
15680;BMP180;15488;48.114;11.532;2023-05-10T00:23:35;94774.00;;;20.90
15680;BMP180;15488;48.114;11.532;2023-05-10T00:26:03;94770.00;;;20.90
15680;BMP180;15488;48.114;11.532;2023-05-10T00:28:31;94775.00;;;20.90
15680;BMP180;15488;48.114;11.532;2023-05-10T00:30:58;94766.00;;;20.90
15680;BMP180;15488;48.114;11.532;2023-05-10T00:33:26;94764.00;;;21.00
15680;BMP180;15488;48.114;11.532;2023-05-10T00:35:53;94769.00;;;20.90
15680;BMP180;15488;48.114;11.532;2023-05-10T00:38:20;94770.00;;;20.90
15680;BMP180;15488;48.114;11.532;2023-05-10T00:40:49;94767.00;;;20.80
15680;BMP180;15488;48.114;11.532;2023-05-10T00:43:17;94766.00;;;20.90
15680;BMP180;15488;48.114;11.532;2023-05-10T00:45:45;94763.00;;;20.90
15680;BMP180;15488;48.114;11.532;2023-05-10T00:48:12;94763.00;;;20.90
15680;BMP180;15488;48.114;11.532;2023-05-10T00:50:40;94762.00;;;20.90
15680;BMP180;15488;48.114;11.532;2023-05-10T00:53:08;94762.00;;;20.90
15680;BMP180;15488;48.114;11.532;2023-05-10T00:55:36;94765.00;;;20.90
15680;BMP180;15488;48.114;11.532;2023-05-10T00:58:05;94758.00;;;20.90
15680;BMP180;15488;48.114;11.532;2023-05-10T01:00:33;94759.00;;;20.80
15680;BMP180;15488;48.114;11.532;2023-05-10T01:03:01;94757.00;;;20.80
15680;BMP180;15488;48.114;11.532;2023-05-10T01:05:29;94763.00;;;20.50
15680;BMP180;15488;48.114;11.532;2023-05-10T01:07:57;94757.00;;;20.80
15680;BMP180;15488;48.114;11.532;2023-05-10T01:10:25;94761.00;;;20.80
15680;BMP180;15488;48.114;11.532;2023-05-10T01:12:53;94759.00;;;20.80
15680;BMP180;15488;48.114;11.532;2023-05-10T01:15:22;94756.00;;;20.80
15680;BMP180;15488;48.114;11.532;2023-05-10T01:17:50;94762.00;;;20.70
15680;BMP180;15488;48.114;11.532;2023-05-10T01:20:18;94758.00;;;20.70
15680;BMP180;15488;48.114;11.532;2023-05-10T01:26:10;94754.00;;;20.70
15680;BMP180;15488;48.114;11.532;2023-05-10T01:29:06;94755.00;;;20.70
15680;BMP180;15488;48.114;11.532;2023-05-10T01:32:02;94752.00;;;20.70
15680;BMP180;15488;48.114;11.532;2023-05-10T01:34:36;94748.00;;;20.60
15680;BMP180;15488;48.114;11.532;2023-05-10T01:37:08;94754.00;;;20.50
15680;BMP180;15488;48.114;11.532;2023-05-10T01:39:43;94753.00;;;20.60
15680;BMP180;15488;48.114;11.532;2023-05-10T01:42:16;94751.00;;;20.60
15680;BMP180;15488;48.114;11.532;2023-05-10T01:44:52;94758.00;;;20.60
15680;BMP180;15488;48.114;11.532;2023-05-10T01:47:28;94755.00;;;20.50
15680;BMP180;15488;48.114;11.532;2023-05-10T01:50:01;94763.00;;;20.50
15680;BMP180;15488;48.114;11.532;2023-05-10T01:52:33;94754.00;;;20.50
15680;BMP180;15488;48.114;11.532;2023-05-10T01:55:06;94756.00;;;20.50
15680;BMP180;15488;48.114;11.532;2023-05-10T01:57:39;94757.00;;;20.50
15680;BMP180;15488;48.114;11.532;2023-05-10T02:00:08;94752.00;;;20.50
15680;BMP180;15488;48.114;11.532;2023-05-10T02:02:39;94757.00;;;20.60
15680;BMP180;15488;48.114;11.532;2023-05-10T02:05:08;94749.00;;;20.60
15680;BMP180;15488;48.114;11.532;2023-05-10T02:07:37;94750.00;;;20.60
15680;BMP180;15488;48.114;11.532;2023-05-10T02:10:06;94760.00;;;20.60
15680;BMP180;15488;48.114;11.532;2023-05-10T02:12:36;94757.00;;;20.60
15680;BMP180;15488;48.114;11.532;2023-05-10T02:15:06;94754.00;;;20.60
15680;BMP180;15488;48.114;11.532;2023-05-10T02:17:37;94759.00;;;20.60
15680;BMP180;15488;48.114;11.532;2023-05-10T02:20:06;94755.00;;;20.60
15680;BMP180;15488;48.114;11.532;2023-05-10T02:22:34;94758.00;;;20.60
15680;BMP180;15488;48.114;11.532;2023-05-10T02:25:04;94759.00;;;20.60
15680;BMP180;15488;48.114;11.532;2023-05-10T02:27:32;94754.00;;;20.70
15680;BMP180;15488;48.114;11.532;2023-05-10T02:30:01;94752.00;;;20.60
15680;BMP180;15488;48.114;11.532;2023-05-10T02:32:29;94761.00;;;20.60
15680;BMP180;15488;48.114;11.532;2023-05-10T02:34:59;94755.00;;;20.60
15680;BMP180;15488;48.114;11.532;2023-05-10T02:37:27;94756.00;;;20.70
15680;BMP180;15488;48.114;11.532;2023-05-10T02:39:56;94758.00;;;20.70
15680;BMP180;15488;48.114;11.532;2023-05-10T02:42:26;94756.00;;;20.60
15680;BMP180;15488;48.114;11.532;2023-05-10T02:44:57;94756.00;;;20.70
15680;BMP180;15488;48.114;11.532;2023-05-10T02:47:26;94754.00;;;20.70
15680;BMP180;15488;48.114;11.532;2023-05-10T02:49:54;94756.00;;;20.70
15680;BMP180;15488;48.114;11.532;2023-05-10T02:52:25;94753.00;;;20.70
15680;BMP180;15488;48.114;11.532;2023-05-10T02:54:58;94754.00;;;20.70
15680;BMP180;15488;48.114;11.532;2023-05-10T02:57:31;94766.00;;;20.70
15680;BMP180;15488;48.114;11.532;2023-05-10T02:59:59;94758.00;;;20.70
15680;BMP180;15488;48.114;11.532;2023-05-10T03:02:27;94756.00;;;20.70
15680;BMP180;15488;48.114;11.532;2023-05-10T03:04:56;94760.00;;;20.70
15680;BMP180;15488;48.114;11.532;2023-05-10T03:07:25;94761.00;;;20.70
15680;BMP180;15488;48.114;11.532;2023-05-10T03:09:52;94768.00;;;20.60
15680;BMP180;15488;48.114;11.532;2023-05-10T03:12:27;94761.00;;;20.60
15680;BMP180;15488;48.114;11.532;2023-05-10T03:15:03;94765.00;;;20.60
15680;BMP180;15488;48.114;11.532;2023-05-10T03:17:41;94763.00;;;20.60
15680;BMP180;15488;48.114;11.532;2023-05-10T03:20:12;94772.00;;;20.60
15680;BMP180;15488;48.114;11.532;2023-05-10T03:22:47;94775.00;;;20.50
15680;BMP180;15488;48.114;11.532;2023-05-10T03:25:16;94772.00;;;20.50
15680;BMP180;15488;48.114;11.532;2023-05-10T03:27:44;94772.00;;;20.50
15680;BMP180;15488;48.114;11.532;2023-05-10T03:30:13;94777.00;;;20.50
15680;BMP180;15488;48.114;11.532;2023-05-10T03:32:41;94773.00;;;20.50
15680;BMP180;15488;48.114;11.532;2023-05-10T03:35:09;94774.00;;;20.50
15680;BMP180;15488;48.114;11.532;2023-05-10T03:37:37;94779.00;;;20.40
15680;BMP180;15488;48.114;11.532;2023-05-10T03:40:07;94781.00;;;20.40
15680;BMP180;15488;48.114;11.532;2023-05-10T03:42:35;94774.00;;;20.30
15680;BMP180;15488;48.114;11.532;2023-05-10T03:45:03;94786.00;;;20.40
15680;BMP180;15488;48.114;11.532;2023-05-10T03:47:30;94780.00;;;20.40
15680;BMP180;15488;48.114;11.532;2023-05-10T03:49:58;94782.00;;;20.30
15680;BMP180;15488;48.114;11.532;2023-05-10T03:52:25;94785.00;;;20.30
15680;BMP180;15488;48.114;11.532;2023-05-10T03:54:53;94788.00;;;20.30
15680;BMP180;15488;48.114;11.532;2023-05-10T03:57:22;94793.00;;;20.30
15680;BMP180;15488;48.114;11.532;2023-05-10T03:59:49;94791.00;;;20.30
15680;BMP180;15488;48.114;11.532;2023-05-10T04:02:16;94797.00;;;20.30
15680;BMP180;15488;48.114;11.532;2023-05-10T04:04:44;94798.00;;;20.30
15680;BMP180;15488;48.114;11.532;2023-05-10T04:07:11;94793.00;;;20.30
15680;BMP180;15488;48.114;11.532;2023-05-10T04:09:39;94798.00;;;20.30
15680;BMP180;15488;48.114;11.532;2023-05-10T04:12:06;94807.00;;;20.20
15680;BMP180;15488;48.114;11.532;2023-05-10T04:14:35;94797.00;;;20.20
15680;BMP180;15488;48.114;11.532;2023-05-10T04:17:03;94796.00;;;20.20
15680;BMP180;15488;48.114;11.532;2023-05-10T04:19:31;94804.00;;;20.20
15680;BMP180;15488;48.114;11.532;2023-05-10T04:21:59;94800.00;;;20.20
15680;BMP180;15488;48.114;11.532;2023-05-10T04:24:26;94804.00;;;20.20
15680;BMP180;15488;48.114;11.532;2023-05-10T04:26:54;94805.00;;;20.20
15680;BMP180;15488;48.114;11.532;2023-05-10T04:29:22;94798.00;;;20.20
15680;BMP180;15488;48.114;11.532;2023-05-10T04:31:51;94800.00;;;19.90
15680;BMP180;15488;48.114;11.532;2023-05-10T04:34:21;94801.00;;;20.20
15680;BMP180;15488;48.114;11.532;2023-05-10T04:36:48;94805.00;;;20.30
15680;BMP180;15488;48.114;11.532;2023-05-10T04:39:16;94802.00;;;20.30
15680;BMP180;15488;48.114;11.532;2023-05-10T04:41:43;94813.00;;;20.30
15680;BMP180;15488;48.114;11.532;2023-05-10T04:44:10;94808.00;;;20.20
15680;BMP180;15488;48.114;11.532;2023-05-10T04:46:38;94808.00;;;20.20
15680;BMP180;15488;48.114;11.532;2023-05-10T04:49:07;94812.00;;;20.20
15680;BMP180;15488;48.114;11.532;2023-05-10T04:51:34;94826.00;;;20.20
15680;BMP180;15488;48.114;11.532;2023-05-10T04:54:02;94817.00;;;20.00
15680;BMP180;15488;48.114;11.532;2023-05-10T04:56:29;94830.00;;;20.00
15680;BMP180;15488;48.114;11.532;2023-05-10T04:58:57;94827.00;;;20.00
15680;BMP180;15488;48.114;11.532;2023-05-10T05:01:24;94825.00;;;19.90
15680;BMP180;15488;48.114;11.532;2023-05-10T05:03:52;94825.00;;;19.70
15680;BMP180;15488;48.114;11.532;2023-05-10T05:06:21;94842.00;;;19.80
15680;BMP180;15488;48.114;11.532;2023-05-10T05:08:48;94838.00;;;19.70
15680;BMP180;15488;48.114;11.532;2023-05-10T05:11:16;94844.00;;;19.60
15680;BMP180;15488;48.114;11.532;2023-05-10T05:13:43;94832.00;;;19.50
15680;BMP180;15488;48.114;11.532;2023-05-10T05:16:11;94849.00;;;19.50
15680;BMP180;15488;48.114;11.532;2023-05-10T05:18:38;94852.00;;;19.40
15680;BMP180;15488;48.114;11.532;2023-05-10T05:21:14;94843.00;;;19.40
15680;BMP180;15488;48.114;11.532;2023-05-10T05:23:43;94861.00;;;19.40
15680;BMP180;15488;48.114;11.532;2023-05-10T05:26:11;94850.00;;;19.40
15680;BMP180;15488;48.114;11.532;2023-05-10T05:28:38;94856.00;;;19.40
15680;BMP180;15488;48.114;11.532;2023-05-10T05:31:06;94857.00;;;19.50
15680;BMP180;15488;48.114;11.532;2023-05-10T05:33:34;94867.00;;;19.50
15680;BMP180;15488;48.114;11.532;2023-05-10T05:36:02;94877.00;;;19.50
15680;BMP180;15488;48.114;11.532;2023-05-10T05:38:30;94870.00;;;19.50
15680;BMP180;15488;48.114;11.532;2023-05-10T05:40:59;94872.00;;;19.50
15680;BMP180;15488;48.114;11.532;2023-05-10T05:43:27;94876.00;;;19.40
15680;BMP180;15488;48.114;11.532;2023-05-10T05:45:55;94873.00;;;19.40
15680;BMP180;15488;48.114;11.532;2023-05-10T05:48:23;94883.00;;;19.40
15680;BMP180;15488;48.114;11.532;2023-05-10T05:50:54;94885.00;;;19.30
15680;BMP180;15488;48.114;11.532;2023-05-10T05:53:22;94883.00;;;19.40
15680;BMP180;15488;48.114;11.532;2023-05-10T05:55:54;94882.00;;;19.40
15680;BMP180;15488;48.114;11.532;2023-05-10T05:58:23;94878.00;;;19.40
15680;BMP180;15488;48.114;11.532;2023-05-10T06:00:51;94883.00;;;19.40
15680;BMP180;15488;48.114;11.532;2023-05-10T06:03:19;94881.00;;;19.40
15680;BMP180;15488;48.114;11.532;2023-05-10T06:05:47;94883.00;;;19.40
15680;BMP180;15488;48.114;11.532;2023-05-10T06:08:15;94886.00;;;19.40
15680;BMP180;15488;48.114;11.532;2023-05-10T06:10:42;94896.00;;;19.40
15680;BMP180;15488;48.114;11.532;2023-05-10T06:13:10;94896.00;;;19.40
15680;BMP180;15488;48.114;11.532;2023-05-10T06:15:39;94908.00;;;19.40
15680;BMP180;15488;48.114;11.532;2023-05-10T06:18:07;94922.00;;;19.40
15680;BMP180;15488;48.114;11.532;2023-05-10T06:20:34;94912.00;;;19.40
15680;BMP180;15488;48.114;11.532;2023-05-10T06:23:01;94918.00;;;19.50
15680;BMP180;15488;48.114;11.532;2023-05-10T06:25:29;94915.00;;;19.50
15680;BMP180;15488;48.114;11.532;2023-05-10T06:27:56;94912.00;;;19.60
15680;BMP180;15488;48.114;11.532;2023-05-10T06:30:27;94917.00;;;19.60
15680;BMP180;15488;48.114;11.532;2023-05-10T06:32:56;94919.00;;;19.70
15680;BMP180;15488;48.114;11.532;2023-05-10T06:35:24;94922.00;;;19.70
15680;BMP180;15488;48.114;11.532;2023-05-10T06:37:51;94929.00;;;19.80
15680;BMP180;15488;48.114;11.532;2023-05-10T06:40:19;94925.00;;;19.80
15680;BMP180;15488;48.114;11.532;2023-05-10T06:42:47;94926.00;;;19.90
15680;BMP180;15488;48.114;11.532;2023-05-10T06:45:15;94926.00;;;19.90
15680;BMP180;15488;48.114;11.532;2023-05-10T06:47:42;94925.00;;;19.90
15680;BMP180;15488;48.114;11.532;2023-05-10T06:50:11;94931.00;;;20.00
15680;BMP180;15488;48.114;11.532;2023-05-10T06:52:41;94931.00;;;20.00
15680;BMP180;15488;48.114;11.532;2023-05-10T06:55:09;94924.00;;;20.00
15680;BMP180;15488;48.114;11.532;2023-05-10T06:57:36;94930.00;;;20.10
15680;BMP180;15488;48.114;11.532;2023-05-10T07:00:05;94928.00;;;19.60
15680;BMP180;15488;48.114;11.532;2023-05-10T07:02:32;94933.00;;;20.10
15680;BMP180;15488;48.114;11.532;2023-05-10T07:05:00;94930.00;;;20.10
15680;BMP180;15488;48.114;11.532;2023-05-10T07:07:29;94931.00;;;20.10
15680;BMP180;15488;48.114;11.532;2023-05-10T07:09:57;94939.00;;;20.10
15680;BMP180;15488;48.114;11.532;2023-05-10T07:12:25;94935.00;;;20.20
15680;BMP180;15488;48.114;11.532;2023-05-10T07:14:52;94945.00;;;20.20
15680;BMP180;15488;48.114;11.532;2023-05-10T07:17:20;94939.00;;;20.20
15680;BMP180;15488;48.114;11.532;2023-05-10T07:19:47;94949.00;;;20.20
15680;BMP180;15488;48.114;11.532;2023-05-10T07:22:15;94939.00;;;20.20
15680;BMP180;15488;48.114;11.532;2023-05-10T07:24:45;94942.00;;;20.20
15680;BMP180;15488;48.114;11.532;2023-05-10T07:27:12;94952.00;;;20.20
15680;BMP180;15488;48.114;11.532;2023-05-10T07:29:40;94951.00;;;20.20
15680;BMP180;15488;48.114;11.532;2023-05-10T07:32:07;94946.00;;;20.20
15680;BMP180;15488;48.114;11.532;2023-05-10T07:34:35;94945.00;;;20.30
15680;BMP180;15488;48.114;11.532;2023-05-10T07:37:02;94940.00;;;20.50
15680;BMP180;15488;48.114;11.532;2023-05-10T07:39:30;94949.00;;;20.40
15680;BMP180;15488;48.114;11.532;2023-05-10T07:41:59;94948.00;;;20.30
15680;BMP180;15488;48.114;11.532;2023-05-10T07:44:26;94948.00;;;20.40
15680;BMP180;15488;48.114;11.532;2023-05-10T07:46:53;94950.00;;;20.30
15680;BMP180;15488;48.114;11.532;2023-05-10T07:49:21;94955.00;;;20.30
15680;BMP180;15488;48.114;11.532;2023-05-10T07:51:50;94958.00;;;20.40
15680;BMP180;15488;48.114;11.532;2023-05-10T07:54:17;94959.00;;;20.50
15680;BMP180;15488;48.114;11.532;2023-05-10T07:56:45;94959.00;;;20.50
15680;BMP180;15488;48.114;11.532;2023-05-10T07:59:17;94953.00;;;20.50
15680;BMP180;15488;48.114;11.532;2023-05-10T08:01:45;94957.00;;;20.50
15680;BMP180;15488;48.114;11.532;2023-05-10T08:04:12;94965.00;;;20.50
15680;BMP180;15488;48.114;11.532;2023-05-10T08:06:40;94957.00;;;20.50
15680;BMP180;15488;48.114;11.532;2023-05-10T08:09:08;94955.00;;;20.50
15680;BMP180;15488;48.114;11.532;2023-05-10T08:11:35;94952.00;;;20.50
15680;BMP180;15488;48.114;11.532;2023-05-10T08:14:02;94953.00;;;20.50
15680;BMP180;15488;48.114;11.532;2023-05-10T08:16:31;94956.00;;;20.60
15680;BMP180;15488;48.114;11.532;2023-05-10T08:19:00;94963.00;;;20.70
15680;BMP180;15488;48.114;11.532;2023-05-10T08:21:28;94958.00;;;20.70
15680;BMP180;15488;48.114;11.532;2023-05-10T08:23:55;94958.00;;;20.80
15680;BMP180;15488;48.114;11.532;2023-05-10T08:26:23;94954.00;;;20.80
15680;BMP180;15488;48.114;11.532;2023-05-10T08:28:52;94961.00;;;20.90
15680;BMP180;15488;48.114;11.532;2023-05-10T08:31:19;94954.00;;;20.90
15680;BMP180;15488;48.114;11.532;2023-05-10T08:33:48;94958.00;;;20.90
15680;BMP180;15488;48.114;11.532;2023-05-10T08:36:17;94958.00;;;21.00
15680;BMP180;15488;48.114;11.532;2023-05-10T08:38:49;94964.00;;;21.00
15680;BMP180;15488;48.114;11.532;2023-05-10T08:41:17;94957.00;;;21.00
15680;BMP180;15488;48.114;11.532;2023-05-10T08:43:45;94965.00;;;21.10
15680;BMP180;15488;48.114;11.532;2023-05-10T08:46:16;94963.00;;;21.10
15680;BMP180;15488;48.114;11.532;2023-05-10T08:48:45;94966.00;;;21.10
15680;BMP180;15488;48.114;11.532;2023-05-10T08:51:16;94966.00;;;21.20
15680;BMP180;15488;48.114;11.532;2023-05-10T08:53:45;94957.00;;;21.30
15680;BMP180;15488;48.114;11.532;2023-05-10T08:56:13;94963.00;;;21.20
15680;BMP180;15488;48.114;11.532;2023-05-10T08:58:41;94965.00;;;21.20
15680;BMP180;15488;48.114;11.532;2023-05-10T09:01:09;94968.00;;;21.30
15680;BMP180;15488;48.114;11.532;2023-05-10T09:03:39;94967.00;;;21.30
15680;BMP180;15488;48.114;11.532;2023-05-10T09:06:07;94963.00;;;21.30
15680;BMP180;15488;48.114;11.532;2023-05-10T09:08:37;94966.00;;;21.30
15680;BMP180;15488;48.114;11.532;2023-05-10T09:11:05;94959.00;;;21.30
15680;BMP180;15488;48.114;11.532;2023-05-10T09:13:32;94954.00;;;21.30
15680;BMP180;15488;48.114;11.532;2023-05-10T09:16:00;94964.00;;;21.40
15680;BMP180;15488;48.114;11.532;2023-05-10T09:18:28;94966.00;;;21.40
15680;BMP180;15488;48.114;11.532;2023-05-10T09:20:56;94963.00;;;21.40
15680;BMP180;15488;48.114;11.532;2023-05-10T09:23:23;94965.00;;;21.30
15680;BMP180;15488;48.114;11.532;2023-05-10T09:26:04;94964.00;;;21.40
15680;BMP180;15488;48.114;11.532;2023-05-10T09:28:32;94966.00;;;21.40
15680;BMP180;15488;48.114;11.532;2023-05-10T09:31:00;94964.00;;;21.40
15680;BMP180;15488;48.114;11.532;2023-05-10T09:33:28;94965.00;;;21.40
15680;BMP180;15488;48.114;11.532;2023-05-10T09:35:55;94964.00;;;21.40
15680;BMP180;15488;48.114;11.532;2023-05-10T09:38:45;94960.00;;;21.40
15680;BMP180;15488;48.114;11.532;2023-05-10T09:41:18;94962.00;;;21.40
15680;BMP180;15488;48.114;11.532;2023-05-10T09:43:46;94961.00;;;21.50
15680;BMP180;15488;48.114;11.532;2023-05-10T09:46:14;94961.00;;;21.50
15680;BMP180;15488;48.114;11.532;2023-05-10T09:48:43;94962.00;;;21.50
15680;BMP180;15488;48.114;11.532;2023-05-10T09:51:16;94959.00;;;21.50
15680;BMP180;15488;48.114;11.532;2023-05-10T09:53:45;94971.00;;;21.60
15680;BMP180;15488;48.114;11.532;2023-05-10T09:56:13;94968.00;;;21.60
15680;BMP180;15488;48.114;11.532;2023-05-10T09:58:41;94966.00;;;21.60
15680;BMP180;15488;48.114;11.532;2023-05-10T10:01:11;94958.00;;;21.60
15680;BMP180;15488;48.114;11.532;2023-05-10T10:03:42;94952.00;;;21.60
15680;BMP180;15488;48.114;11.532;2023-05-10T10:06:10;94958.00;;;21.70
15680;BMP180;15488;48.114;11.532;2023-05-10T10:08:38;94952.00;;;21.80
15680;BMP180;15488;48.114;11.532;2023-05-10T10:11:05;94953.00;;;21.80
15680;BMP180;15488;48.114;11.532;2023-05-10T10:13:33;94952.00;;;21.90
15680;BMP180;15488;48.114;11.532;2023-05-10T10:16:02;94955.00;;;21.90
15680;BMP180;15488;48.114;11.532;2023-05-10T10:18:31;94955.00;;;22.00
15680;BMP180;15488;48.114;11.532;2023-05-10T10:20:59;94959.00;;;22.00
15680;BMP180;15488;48.114;11.532;2023-05-10T10:23:27;94954.00;;;22.10
15680;BMP180;15488;48.114;11.532;2023-05-10T10:25:55;94951.00;;;22.20
15680;BMP180;15488;48.114;11.532;2023-05-10T10:28:31;94949.00;;;22.20
15680;BMP180;15488;48.114;11.532;2023-05-10T10:31:16;94952.00;;;22.30
15680;BMP180;15488;48.114;11.532;2023-05-10T10:33:55;94952.00;;;22.50
15680;BMP180;15488;48.114;11.532;2023-05-10T10:36:24;94953.00;;;22.60
15680;BMP180;15488;48.114;11.532;2023-05-10T10:38:59;94946.00;;;22.60
15680;BMP180;15488;48.114;11.532;2023-05-10T10:41:32;94937.00;;;22.70
15680;BMP180;15488;48.114;11.532;2023-05-10T10:44:33;94935.00;;;22.80
15680;BMP180;15488;48.114;11.532;2023-05-10T10:47:07;94929.00;;;22.80
15680;BMP180;15488;48.114;11.532;2023-05-10T10:49:48;94937.00;;;22.80
15680;BMP180;15488;48.114;11.532;2023-05-10T10:52:22;94939.00;;;22.80
15680;BMP180;15488;48.114;11.532;2023-05-10T10:54:54;94936.00;;;22.80
15680;BMP180;15488;48.114;11.532;2023-05-10T10:57:25;94952.00;;;22.90
15680;BMP180;15488;48.114;11.532;2023-05-10T11:00:22;94954.00;;;22.80
15680;BMP180;15488;48.114;11.532;2023-05-10T11:02:52;94957.00;;;22.70
15680;BMP180;15488;48.114;11.532;2023-05-10T11:05:25;94960.00;;;22.60
15680;BMP180;15488;48.114;11.532;2023-05-10T11:07:53;94957.00;;;22.40
15680;BMP180;15488;48.114;11.532;2023-05-10T11:10:21;94959.00;;;22.20
15680;BMP180;15488;48.114;11.532;2023-05-10T11:12:52;94963.00;;;22.10
15680;BMP180;15488;48.114;11.532;2023-05-10T11:15:29;94954.00;;;22.00
15680;BMP180;15488;48.114;11.532;2023-05-10T11:17:58;94954.00;;;21.90
15680;BMP180;15488;48.114;11.532;2023-05-10T11:20:28;94953.00;;;21.80
15680;BMP180;15488;48.114;11.532;2023-05-10T11:23:11;94965.00;;;21.70
15680;BMP180;15488;48.114;11.532;2023-05-10T11:25:42;94963.00;;;21.60
15680;BMP180;15488;48.114;11.532;2023-05-10T11:28:11;94975.00;;;21.50
15680;BMP180;15488;48.114;11.532;2023-05-10T11:30:39;94974.00;;;21.30
15680;BMP180;15488;48.114;11.532;2023-05-10T11:33:09;94986.00;;;21.30
15680;BMP180;15488;48.114;11.532;2023-05-10T11:35:40;94990.00;;;21.10
15680;BMP180;15488;48.114;11.532;2023-05-10T11:38:08;94990.00;;;21.00
15680;BMP180;15488;48.114;11.532;2023-05-10T11:40:37;94995.00;;;20.90
15680;BMP180;15488;48.114;11.532;2023-05-10T11:43:05;94991.00;;;20.80
15680;BMP180;15488;48.114;11.532;2023-05-10T11:45:35;94991.00;;;20.70
15680;BMP180;15488;48.114;11.532;2023-05-10T11:48:03;94992.00;;;20.50
15680;BMP180;15488;48.114;11.532;2023-05-10T11:50:32;94994.00;;;20.50
15680;BMP180;15488;48.114;11.532;2023-05-10T11:52:59;95000.00;;;20.50
15680;BMP180;15488;48.114;11.532;2023-05-10T11:55:27;95001.00;;;20.40
15680;BMP180;15488;48.114;11.532;2023-05-10T11:58:00;95012.00;;;20.40
15680;BMP180;15488;48.114;11.532;2023-05-10T12:00:29;95009.00;;;20.30
15680;BMP180;15488;48.114;11.532;2023-05-10T12:02:57;95018.00;;;20.30
15680;BMP180;15488;48.114;11.532;2023-05-10T12:05:25;95015.00;;;20.20
15680;BMP180;15488;48.114;11.532;2023-05-10T12:10:36;95017.00;;;20.10
15680;BMP180;15488;48.114;11.532;2023-05-10T12:13:03;95020.00;;;20.10
15680;BMP180;15488;48.114;11.532;2023-05-10T12:15:31;95024.00;;;20.00
15680;BMP180;15488;48.114;11.532;2023-05-10T12:17:58;95029.00;;;20.00
15680;BMP180;15488;48.114;11.532;2023-05-10T12:20:28;95021.00;;;20.00
15680;BMP180;15488;48.114;11.532;2023-05-10T12:22:58;95023.00;;;19.90
15680;BMP180;15488;48.114;11.532;2023-05-10T12:25:31;95032.00;;;20.00
15680;BMP180;15488;48.114;11.532;2023-05-10T12:28:00;95027.00;;;19.90
15680;BMP180;15488;48.114;11.532;2023-05-10T12:30:29;95026.00;;;19.70
15680;BMP180;15488;48.114;11.532;2023-05-10T12:33:00;95035.00;;;19.70
15680;BMP180;15488;48.114;11.532;2023-05-10T12:35:31;95039.00;;;19.70
15680;BMP180;15488;48.114;11.532;2023-05-10T12:38:00;95044.00;;;19.70
15680;BMP180;15488;48.114;11.532;2023-05-10T12:40:27;95046.00;;;19.70
15680;BMP180;15488;48.114;11.532;2023-05-10T12:42:55;95044.00;;;19.80
15680;BMP180;15488;48.114;11.532;2023-05-10T12:45:25;95049.00;;;19.70
15680;BMP180;15488;48.114;11.532;2023-05-10T12:47:53;95046.00;;;19.70
15680;BMP180;15488;48.114;11.532;2023-05-10T12:50:20;95048.00;;;19.70
15680;BMP180;15488;48.114;11.532;2023-05-10T12:52:47;95047.00;;;19.80
15680;BMP180;15488;48.114;11.532;2023-05-10T12:55:16;95045.00;;;19.80
15680;BMP180;15488;48.114;11.532;2023-05-10T12:57:44;95050.00;;;19.80
15680;BMP180;15488;48.114;11.532;2023-05-10T13:00:12;95041.00;;;19.80
15680;BMP180;15488;48.114;11.532;2023-05-10T13:02:40;95045.00;;;19.90
15680;BMP180;15488;48.114;11.532;2023-05-10T13:05:08;95049.00;;;19.80
15680;BMP180;15488;48.114;11.532;2023-05-10T13:07:35;95048.00;;;19.90
15680;BMP180;15488;48.114;11.532;2023-05-10T13:10:03;95049.00;;;19.90
15680;BMP180;15488;48.114;11.532;2023-05-10T13:12:32;95057.00;;;19.90
15680;BMP180;15488;48.114;11.532;2023-05-10T13:15:00;95063.00;;;19.90
15680;BMP180;15488;48.114;11.532;2023-05-10T13:17:27;95060.00;;;20.00
15680;BMP180;15488;48.114;11.532;2023-05-10T13:19:55;95053.00;;;20.00
15680;BMP180;15488;48.114;11.532;2023-05-10T13:22:22;95049.00;;;20.00
15680;BMP180;15488;48.114;11.532;2023-05-10T13:24:50;95053.00;;;20.00
15680;BMP180;15488;48.114;11.532;2023-05-10T13:27:17;95059.00;;;20.10
15680;BMP180;15488;48.114;11.532;2023-05-10T13:29:46;95057.00;;;20.00
15680;BMP180;15488;48.114;11.532;2023-05-10T13:32:13;95062.00;;;19.90
15680;BMP180;15488;48.114;11.532;2023-05-10T13:34:41;95053.00;;;19.90
15680;BMP180;15488;48.114;11.532;2023-05-10T13:37:08;95047.00;;;19.80
15680;BMP180;15488;48.114;11.532;2023-05-10T13:39:36;95052.00;;;19.80
15680;BMP180;15488;48.114;11.532;2023-05-10T13:42:03;95056.00;;;19.80
15680;BMP180;15488;48.114;11.532;2023-05-10T13:44:31;95052.00;;;19.80
15680;BMP180;15488;48.114;11.532;2023-05-10T13:47:01;95052.00;;;19.80
15680;BMP180;15488;48.114;11.532;2023-05-10T13:49:28;95054.00;;;19.80
15680;BMP180;15488;48.114;11.532;2023-05-10T13:51:56;95058.00;;;19.90
15680;BMP180;15488;48.114;11.532;2023-05-10T13:54:24;95053.00;;;19.90
15680;BMP180;15488;48.114;11.532;2023-05-10T13:56:52;95052.00;;;19.90
15680;BMP180;15488;48.114;11.532;2023-05-10T13:59:20;95054.00;;;19.90
15680;BMP180;15488;48.114;11.532;2023-05-10T14:01:47;95054.00;;;19.90
15680;BMP180;15488;48.114;11.532;2023-05-10T14:04:16;95052.00;;;19.90
15680;BMP180;15488;48.114;11.532;2023-05-10T14:06:44;95051.00;;;20.00
15680;BMP180;15488;48.114;11.532;2023-05-10T14:09:11;95045.00;;;20.00
15680;BMP180;15488;48.114;11.532;2023-05-10T14:11:38;95052.00;;;20.00
15680;BMP180;15488;48.114;11.532;2023-05-10T14:14:09;95048.00;;;20.00